sensor_id;sensor_type;location;lat;lon;timestamp;P1;durP1;ratioP1;P2;durP2;ratioP2
8415;SDS011;4245;42.120;24.732;2022-12-18T00:00:11;65.73;;;34.70;;
8415;SDS011;4245;42.120;24.732;2022-12-18T00:02:38;67.90;;;31.10;;
8415;SDS011;4245;42.120;24.732;2022-12-18T00:05:07;57.90;;;31.17;;
8415;SDS011;4245;42.120;24.732;2022-12-18T00:07:34;58.20;;;33.10;;
8415;SDS011;4245;42.120;24.732;2022-12-18T00:10:02;56.23;;;31.67;;
8415;SDS011;4245;42.120;24.732;2022-12-18T00:12:29;60.70;;;33.10;;
8415;SDS011;4245;42.120;24.732;2022-12-18T00:14:56;65.27;;;33.70;;
8415;SDS011;4245;42.120;24.732;2022-12-18T00:17:23;60.37;;;32.97;;
8415;SDS011;4245;42.120;24.732;2022-12-18T00:19:49;54.27;;;30.03;;
8415;SDS011;4245;42.120;24.732;2022-12-18T00:22:17;54.80;;;29.90;;
8415;SDS011;4245;42.120;24.732;2022-12-18T00:24:44;48.20;;;28.43;;
8415;SDS011;4245;42.120;24.732;2022-12-18T00:27:11;46.00;;;26.27;;
8415;SDS011;4245;42.120;24.732;2022-12-18T00:29:41;45.17;;;27.27;;
8415;SDS011;4245;42.120;24.732;2022-12-18T00:32:07;49.30;;;27.37;;
8415;SDS011;4245;42.120;24.732;2022-12-18T00:34:34;48.37;;;28.50;;
8415;SDS011;4245;42.120;24.732;2022-12-18T00:37:01;49.07;;;29.50;;
8415;SDS011;4245;42.120;24.732;2022-12-18T00:39:29;49.60;;;29.70;;
8415;SDS011;4245;42.120;24.732;2022-12-18T00:41:56;47.20;;;28.43;;
8415;SDS011;4245;42.120;24.732;2022-12-18T00:44:40;45.97;;;27.20;;
8415;SDS011;4245;42.120;24.732;2022-12-18T00:47:07;47.27;;;29.20;;
8415;SDS011;4245;42.120;24.732;2022-12-18T00:49:34;55.23;;;30.87;;
8415;SDS011;4245;42.120;24.732;2022-12-18T00:52:00;155.47;;;32.67;;
8415;SDS011;4245;42.120;24.732;2022-12-18T00:54:27;82.17;;;30.77;;
8415;SDS011;4245;42.120;24.732;2022-12-18T00:56:55;61.07;;;29.27;;
8415;SDS011;4245;42.120;24.732;2022-12-18T00:59:22;73.87;;;29.50;;
8415;SDS011;4245;42.120;24.732;2022-12-18T01:01:49;251.43;;;33.17;;
8415;SDS011;4245;42.120;24.732;2022-12-18T01:04:15;76.17;;;28.67;;
8415;SDS011;4245;42.120;24.732;2022-12-18T01:06:42;58.87;;;26.43;;
8415;SDS011;4245;42.120;24.732;2022-12-18T01:09:09;80.93;;;29.13;;
8415;SDS011;4245;42.120;24.732;2022-12-18T01:11:36;68.27;;;30.43;;
8415;SDS011;4245;42.120;24.732;2022-12-18T01:14:04;51.43;;;29.33;;
8415;SDS011;4245;42.120;24.732;2022-12-18T01:16:31;55.43;;;28.20;;
8415;SDS011;4245;42.120;24.732;2022-12-18T01:18:58;49.13;;;28.67;;
8415;SDS011;4245;42.120;24.732;2022-12-18T01:21:24;62.73;;;31.73;;
8415;SDS011;4245;42.120;24.732;2022-12-18T01:23:53;52.47;;;29.33;;
8415;SDS011;4245;42.120;24.732;2022-12-18T01:26:21;47.90;;;28.40;;
8415;SDS011;4245;42.120;24.732;2022-12-18T01:28:47;55.60;;;28.70;;
8415;SDS011;4245;42.120;24.732;2022-12-18T01:31:17;42.17;;;25.03;;
8415;SDS011;4245;42.120;24.732;2022-12-18T01:33:49;48.07;;;27.17;;
8415;SDS011;4245;42.120;24.732;2022-12-18T01:36:17;41.53;;;22.50;;
8415;SDS011;4245;42.120;24.732;2022-12-18T01:38:45;44.40;;;24.13;;
8415;SDS011;4245;42.120;24.732;2022-12-18T01:41:13;37.60;;;21.37;;
8415;SDS011;4245;42.120;24.732;2022-12-18T01:43:42;34.37;;;20.57;;
8415;SDS011;4245;42.120;24.732;2022-12-18T01:46:18;36.37;;;21.63;;
8415;SDS011;4245;42.120;24.732;2022-12-18T01:48:48;32.23;;;18.20;;
8415;SDS011;4245;42.120;24.732;2022-12-18T01:51:18;33.10;;;19.47;;
8415;SDS011;4245;42.120;24.732;2022-12-18T01:53:46;33.53;;;19.50;;
8415;SDS011;4245;42.120;24.732;2022-12-18T01:56:14;33.83;;;20.43;;
8415;SDS011;4245;42.120;24.732;2022-12-18T01:58:48;32.43;;;19.93;;
8415;SDS011;4245;42.120;24.732;2022-12-18T02:01:21;32.83;;;20.73;;
8415;SDS011;4245;42.120;24.732;2022-12-18T02:03:48;33.13;;;19.30;;
8415;SDS011;4245;42.120;24.732;2022-12-18T02:06:17;31.90;;;19.03;;
8415;SDS011;4245;42.120;24.732;2022-12-18T02:08:58;28.67;;;17.43;;
8415;SDS011;4245;42.120;24.732;2022-12-18T02:11:37;29.87;;;18.30;;
8415;SDS011;4245;42.120;24.732;2022-12-18T02:14:15;27.00;;;17.53;;
8415;SDS011;4245;42.120;24.732;2022-12-18T02:16:51;26.47;;;16.90;;
8415;SDS011;4245;42.120;24.732;2022-12-18T02:19:30;28.23;;;16.80;;
8415;SDS011;4245;42.120;24.732;2022-12-18T02:22:13;26.73;;;16.87;;
8415;SDS011;4245;42.120;24.732;2022-12-18T02:24:54;28.10;;;16.53;;
8415;SDS011;4245;42.120;24.732;2022-12-18T02:27:32;28.20;;;17.00;;
8415;SDS011;4245;42.120;24.732;2022-12-18T02:30:01;25.00;;;15.50;;
8415;SDS011;4245;42.120;24.732;2022-12-18T02:32:32;25.73;;;15.87;;
8415;SDS011;4245;42.120;24.732;2022-12-18T02:35:02;25.60;;;14.90;;
8415;SDS011;4245;42.120;24.732;2022-12-18T02:37:32;23.03;;;13.30;;
8415;SDS011;4245;42.120;24.732;2022-12-18T02:40:02;23.60;;;14.77;;
8415;SDS011;4245;42.120;24.732;2022-12-18T02:42:30;26.10;;;14.10;;
8415;SDS011;4245;42.120;24.732;2022-12-18T02:44:59;27.33;;;14.97;;
8415;SDS011;4245;42.120;24.732;2022-12-18T02:47:28;23.70;;;15.43;;
8415;SDS011;4245;42.120;24.732;2022-12-18T02:49:58;24.30;;;14.20;;
8415;SDS011;4245;42.120;24.732;2022-12-18T02:52:33;23.60;;;14.80;;
8415;SDS011;4245;42.120;24.732;2022-12-18T02:55:08;26.97;;;15.53;;
8415;SDS011;4245;42.120;24.732;2022-12-18T02:57:44;27.10;;;15.77;;
8415;SDS011;4245;42.120;24.732;2022-12-18T03:00:17;21.43;;;14.67;;
8415;SDS011;4245;42.120;24.732;2022-12-18T03:02:47;23.47;;;14.83;;
8415;SDS011;4245;42.120;24.732;2022-12-18T03:05:22;22.37;;;14.90;;
8415;SDS011;4245;42.120;24.732;2022-12-18T03:07:53;20.90;;;14.07;;
8415;SDS011;4245;42.120;24.732;2022-12-18T03:10:25;23.80;;;15.80;;
8415;SDS011;4245;42.120;24.732;2022-12-18T03:12:57;22.53;;;15.00;;
8415;SDS011;4245;42.120;24.732;2022-12-18T03:15:29;24.60;;;15.17;;
8415;SDS011;4245;42.120;24.732;2022-12-18T03:17:59;24.77;;;15.63;;
8415;SDS011;4245;42.120;24.732;2022-12-18T03:20:31;24.83;;;15.63;;
8415;SDS011;4245;42.120;24.732;2022-12-18T03:23:02;21.67;;;15.03;;
8415;SDS011;4245;42.120;24.732;2022-12-18T03:25:32;25.87;;;16.00;;
8415;SDS011;4245;42.120;24.732;2022-12-18T03:28:04;23.07;;;14.93;;
8415;SDS011;4245;42.120;24.732;2022-12-18T03:30:37;26.70;;;16.27;;
8415;SDS011;4245;42.120;24.732;2022-12-18T03:33:07;24.47;;;15.10;;
8415;SDS011;4245;42.120;24.732;2022-12-18T03:35:37;23.90;;;14.80;;
8415;SDS011;4245;42.120;24.732;2022-12-18T03:38:08;24.77;;;14.67;;
8415;SDS011;4245;42.120;24.732;2022-12-18T03:40:39;25.20;;;15.20;;
8415;SDS011;4245;42.120;24.732;2022-12-18T03:43:12;25.13;;;15.30;;
8415;SDS011;4245;42.120;24.732;2022-12-18T03:45:48;25.93;;;14.33;;
8415;SDS011;4245;42.120;24.732;2022-12-18T03:48:21;22.07;;;14.20;;
8415;SDS011;4245;42.120;24.732;2022-12-18T03:50:56;22.93;;;14.57;;
8415;SDS011;4245;42.120;24.732;2022-12-18T03:53:28;20.90;;;13.53;;
8415;SDS011;4245;42.120;24.732;2022-12-18T03:56:00;20.30;;;13.73;;
8415;SDS011;4245;42.120;24.732;2022-12-18T03:58:30;20.47;;;12.03;;
8415;SDS011;4245;42.120;24.732;2022-12-18T04:01:02;18.90;;;13.00;;
8415;SDS011;4245;42.120;24.732;2022-12-18T04:03:32;19.40;;;12.07;;
8415;SDS011;4245;42.120;24.732;2022-12-18T04:05:59;22.47;;;12.63;;
8415;SDS011;4245;42.120;24.732;2022-12-18T04:08:27;19.60;;;12.23;;
8415;SDS011;4245;42.120;24.732;2022-12-18T04:10:55;18.97;;;12.13;;
8415;SDS011;4245;42.120;24.732;2022-12-18T04:13:22;20.07;;;12.40;;
8415;SDS011;4245;42.120;24.732;2022-12-18T04:15:49;24.00;;;12.83;;
8415;SDS011;4245;42.120;24.732;2022-12-18T04:18:17;19.80;;;11.40;;
8415;SDS011;4245;42.120;24.732;2022-12-18T04:20:44;18.70;;;12.00;;
8415;SDS011;4245;42.120;24.732;2022-12-18T04:23:11;20.07;;;11.27;;
8415;SDS011;4245;42.120;24.732;2022-12-18T04:25:38;18.30;;;11.07;;
8415;SDS011;4245;42.120;24.732;2022-12-18T04:28:05;16.47;;;10.03;;
8415;SDS011;4245;42.120;24.732;2022-12-18T04:30:32;14.80;;;9.60;;
8415;SDS011;4245;42.120;24.732;2022-12-18T04:32:59;15.87;;;9.80;;
8415;SDS011;4245;42.120;24.732;2022-12-18T04:35:27;16.43;;;9.37;;
8415;SDS011;4245;42.120;24.732;2022-12-18T04:37:54;13.70;;;9.20;;
8415;SDS011;4245;42.120;24.732;2022-12-18T04:40:20;13.83;;;7.67;;
8415;SDS011;4245;42.120;24.732;2022-12-18T04:42:47;11.40;;;7.90;;
8415;SDS011;4245;42.120;24.732;2022-12-18T04:45:14;13.07;;;7.60;;
8415;SDS011;4245;42.120;24.732;2022-12-18T04:47:41;10.90;;;7.40;;
8415;SDS011;4245;42.120;24.732;2022-12-18T04:50:08;9.37;;;6.63;;
8415;SDS011;4245;42.120;24.732;2022-12-18T04:52:36;12.53;;;7.00;;
8415;SDS011;4245;42.120;24.732;2022-12-18T04:55:03;8.80;;;6.13;;
8415;SDS011;4245;42.120;24.732;2022-12-18T04:57:30;10.43;;;6.70;;
8415;SDS011;4245;42.120;24.732;2022-12-18T04:59:57;10.53;;;7.00;;
8415;SDS011;4245;42.120;24.732;2022-12-18T05:02:23;9.47;;;6.00;;
8415;SDS011;4245;42.120;24.732;2022-12-18T05:04:50;9.57;;;6.27;;
8415;SDS011;4245;42.120;24.732;2022-12-18T05:07:17;10.07;;;5.67;;
8415;SDS011;4245;42.120;24.732;2022-12-18T05:09:45;8.80;;;5.77;;
8415;SDS011;4245;42.120;24.732;2022-12-18T05:12:12;9.70;;;6.67;;
8415;SDS011;4245;42.120;24.732;2022-12-18T05:14:39;10.53;;;6.20;;
8415;SDS011;4245;42.120;24.732;2022-12-18T05:17:05;10.33;;;6.50;;
8415;SDS011;4245;42.120;24.732;2022-12-18T05:19:32;10.63;;;6.63;;
8415;SDS011;4245;42.120;24.732;2022-12-18T05:21:59;10.30;;;6.53;;
8415;SDS011;4245;42.120;24.732;2022-12-18T05:24:26;10.67;;;6.83;;
8415;SDS011;4245;42.120;24.732;2022-12-18T05:26:54;9.50;;;6.40;;
8415;SDS011;4245;42.120;24.732;2022-12-18T05:29:21;12.40;;;6.77;;
8415;SDS011;4245;42.120;24.732;2022-12-18T05:31:48;10.00;;;6.60;;
8415;SDS011;4245;42.120;24.732;2022-12-18T05:34:15;11.67;;;7.10;;
8415;SDS011;4245;42.120;24.732;2022-12-18T05:36:42;10.20;;;6.80;;
8415;SDS011;4245;42.120;24.732;2022-12-18T05:39:08;10.07;;;6.90;;
8415;SDS011;4245;42.120;24.732;2022-12-18T05:41:35;9.67;;;6.43;;
8415;SDS011;4245;42.120;24.732;2022-12-18T05:44:03;11.13;;;6.63;;
8415;SDS011;4245;42.120;24.732;2022-12-18T05:46:30;9.80;;;6.23;;
8415;SDS011;4245;42.120;24.732;2022-12-18T05:48:58;11.33;;;6.60;;
8415;SDS011;4245;42.120;24.732;2022-12-18T05:51:26;9.07;;;6.00;;
8415;SDS011;4245;42.120;24.732;2022-12-18T05:53:53;8.23;;;5.13;;
8415;SDS011;4245;42.120;24.732;2022-12-18T05:56:20;8.00;;;5.47;;
8415;SDS011;4245;42.120;24.732;2022-12-18T05:58:50;9.33;;;6.13;;
8415;SDS011;4245;42.120;24.732;2022-12-18T06:01:21;11.63;;;6.30;;
8415;SDS011;4245;42.120;24.732;2022-12-18T06:03:49;8.67;;;5.93;;
8415;SDS011;4245;42.120;24.732;2022-12-18T06:06:16;9.80;;;6.13;;
8415;SDS011;4245;42.120;24.732;2022-12-18T06:08:45;9.20;;;5.50;;
8415;SDS011;4245;42.120;24.732;2022-12-18T06:11:12;10.80;;;6.93;;
8415;SDS011;4245;42.120;24.732;2022-12-18T06:13:39;10.20;;;6.90;;
8415;SDS011;4245;42.120;24.732;2022-12-18T06:16:06;10.47;;;6.70;;
8415;SDS011;4245;42.120;24.732;2022-12-18T06:18:38;11.57;;;7.33;;
8415;SDS011;4245;42.120;24.732;2022-12-18T06:21:05;13.27;;;7.00;;
8415;SDS011;4245;42.120;24.732;2022-12-18T06:23:32;18.63;;;11.63;;
8415;SDS011;4245;42.120;24.732;2022-12-18T06:25:58;12.97;;;6.00;;
8415;SDS011;4245;42.120;24.732;2022-12-18T06:28:29;9.27;;;6.23;;
8415;SDS011;4245;42.120;24.732;2022-12-18T06:30:56;10.97;;;6.80;;
8415;SDS011;4245;42.120;24.732;2022-12-18T06:33:25;10.43;;;6.20;;
8415;SDS011;4245;42.120;24.732;2022-12-18T06:35:54;11.93;;;6.80;;
8415;SDS011;4245;42.120;24.732;2022-12-18T06:38:25;9.73;;;6.47;;
8415;SDS011;4245;42.120;24.732;2022-12-18T06:40:52;12.23;;;6.80;;
8415;SDS011;4245;42.120;24.732;2022-12-18T06:43:19;10.90;;;6.17;;
8415;SDS011;4245;42.120;24.732;2022-12-18T06:45:45;13.90;;;6.90;;
8415;SDS011;4245;42.120;24.732;2022-12-18T06:48:17;10.87;;;6.10;;
8415;SDS011;4245;42.120;24.732;2022-12-18T06:50:45;10.17;;;6.10;;
8415;SDS011;4245;42.120;24.732;2022-12-18T06:53:13;11.03;;;6.10;;
8415;SDS011;4245;42.120;24.732;2022-12-18T06:55:40;9.87;;;6.80;;
8415;SDS011;4245;42.120;24.732;2022-12-18T06:58:07;15.90;;;7.37;;
8415;SDS011;4245;42.120;24.732;2022-12-18T07:00:34;9.07;;;6.47;;
8415;SDS011;4245;42.120;24.732;2022-12-18T07:03:01;12.33;;;6.67;;
8415;SDS011;4245;42.120;24.732;2022-12-18T07:05:28;9.93;;;6.70;;
8415;SDS011;4245;42.120;24.732;2022-12-18T07:07:55;12.53;;;6.70;;
8415;SDS011;4245;42.120;24.732;2022-12-18T07:10:23;11.13;;;6.27;;
8415;SDS011;4245;42.120;24.732;2022-12-18T07:12:50;10.73;;;6.23;;
8415;SDS011;4245;42.120;24.732;2022-12-18T07:15:17;11.53;;;6.20;;
8415;SDS011;4245;42.120;24.732;2022-12-18T07:17:44;12.27;;;6.43;;
8415;SDS011;4245;42.120;24.732;2022-12-18T07:20:10;12.70;;;6.93;;
8415;SDS011;4245;42.120;24.732;2022-12-18T07:22:37;11.03;;;6.83;;
8415;SDS011;4245;42.120;24.732;2022-12-18T07:25:04;13.93;;;7.50;;
8415;SDS011;4245;42.120;24.732;2022-12-18T07:27:34;10.73;;;6.57;;
8415;SDS011;4245;42.120;24.732;2022-12-18T07:30:00;11.37;;;7.33;;
8415;SDS011;4245;42.120;24.732;2022-12-18T07:32:27;13.20;;;8.53;;
8415;SDS011;4245;42.120;24.732;2022-12-18T07:34:54;13.43;;;7.73;;
8415;SDS011;4245;42.120;24.732;2022-12-18T07:37:21;9.47;;;6.77;;
8415;SDS011;4245;42.120;24.732;2022-12-18T07:39:48;10.23;;;5.80;;
8415;SDS011;4245;42.120;24.732;2022-12-18T07:42:14;9.83;;;6.63;;
8415;SDS011;4245;42.120;24.732;2022-12-18T07:47:35;12.17;;;6.87;;
8415;SDS011;4245;42.120;24.732;2022-12-18T07:50:02;12.30;;;7.30;;
8415;SDS011;4245;42.120;24.732;2022-12-18T07:52:30;14.27;;;8.40;;
8415;SDS011;4245;42.120;24.732;2022-12-18T07:54:56;13.50;;;8.60;;
8415;SDS011;4245;42.120;24.732;2022-12-18T07:57:26;11.60;;;7.27;;
8415;SDS011;4245;42.120;24.732;2022-12-18T07:59:54;12.03;;;6.13;;
8415;SDS011;4245;42.120;24.732;2022-12-18T08:02:21;11.10;;;6.53;;
8415;SDS011;4245;42.120;24.732;2022-12-18T08:04:49;10.33;;;6.47;;
8415;SDS011;4245;42.120;24.732;2022-12-18T08:07:16;10.50;;;6.83;;
8415;SDS011;4245;42.120;24.732;2022-12-18T08:09:43;13.53;;;8.00;;
8415;SDS011;4245;42.120;24.732;2022-12-18T08:12:09;11.77;;;7.03;;
8415;SDS011;4245;42.120;24.732;2022-12-18T08:14:36;11.83;;;6.30;;
8415;SDS011;4245;42.120;24.732;2022-12-18T08:17:04;9.20;;;5.70;;
8415;SDS011;4245;42.120;24.732;2022-12-18T08:19:31;9.10;;;5.90;;
8415;SDS011;4245;42.120;24.732;2022-12-18T08:21:59;8.17;;;5.90;;
8415;SDS011;4245;42.120;24.732;2022-12-18T08:24:26;13.30;;;7.00;;
8415;SDS011;4245;42.120;24.732;2022-12-18T08:26:53;12.37;;;6.83;;
8415;SDS011;4245;42.120;24.732;2022-12-18T08:29:22;11.50;;;6.53;;
8415;SDS011;4245;42.120;24.732;2022-12-18T08:31:50;11.87;;;6.50;;
8415;SDS011;4245;42.120;24.732;2022-12-18T08:34:17;11.03;;;6.93;;
8415;SDS011;4245;42.120;24.732;2022-12-18T08:36:44;10.03;;;6.70;;
8415;SDS011;4245;42.120;24.732;2022-12-18T08:39:14;10.40;;;6.73;;
8415;SDS011;4245;42.120;24.732;2022-12-18T08:41:44;11.73;;;7.00;;
8415;SDS011;4245;42.120;24.732;2022-12-18T08:44:34;12.70;;;6.57;;
8415;SDS011;4245;42.120;24.732;2022-12-18T08:47:03;10.47;;;5.90;;
8415;SDS011;4245;42.120;24.732;2022-12-18T08:49:31;17.80;;;8.83;;
8415;SDS011;4245;42.120;24.732;2022-12-18T08:51:58;13.93;;;8.10;;
8415;SDS011;4245;42.120;24.732;2022-12-18T08:54:26;13.17;;;6.50;;
8415;SDS011;4245;42.120;24.732;2022-12-18T08:56:53;11.73;;;6.90;;
8415;SDS011;4245;42.120;24.732;2022-12-18T08:59:19;12.83;;;8.33;;
8415;SDS011;4245;42.120;24.732;2022-12-18T09:01:46;9.33;;;6.10;;
8415;SDS011;4245;42.120;24.732;2022-12-18T09:04:13;11.53;;;6.33;;
8415;SDS011;4245;42.120;24.732;2022-12-18T09:06:40;10.93;;;6.67;;
8415;SDS011;4245;42.120;24.732;2022-12-18T09:09:07;12.97;;;7.23;;
8415;SDS011;4245;42.120;24.732;2022-12-18T09:11:37;10.17;;;6.13;;
8415;SDS011;4245;42.120;24.732;2022-12-18T09:14:04;12.27;;;7.70;;
8415;SDS011;4245;42.120;24.732;2022-12-18T09:16:31;13.63;;;7.73;;
8415;SDS011;4245;42.120;24.732;2022-12-18T09:19:00;14.60;;;7.43;;
8415;SDS011;4245;42.120;24.732;2022-12-18T09:21:28;12.90;;;7.20;;
8415;SDS011;4245;42.120;24.732;2022-12-18T09:23:56;22.47;;;9.60;;
8415;SDS011;4245;42.120;24.732;2022-12-18T09:26:24;22.63;;;9.93;;
8415;SDS011;4245;42.120;24.732;2022-12-18T09:28:53;11.40;;;6.80;;
8415;SDS011;4245;42.120;24.732;2022-12-18T09:31:21;10.70;;;6.90;;
8415;SDS011;4245;42.120;24.732;2022-12-18T09:33:49;9.53;;;5.97;;
8415;SDS011;4245;42.120;24.732;2022-12-18T09:36:16;11.27;;;6.50;;
8415;SDS011;4245;42.120;24.732;2022-12-18T09:38:44;10.60;;;6.93;;
8415;SDS011;4245;42.120;24.732;2022-12-18T09:41:19;11.03;;;6.80;;
8415;SDS011;4245;42.120;24.732;2022-12-18T09:44:05;11.17;;;6.30;;
8415;SDS011;4245;42.120;24.732;2022-12-18T09:46:40;10.07;;;6.03;;
8415;SDS011;4245;42.120;24.732;2022-12-18T09:49:12;9.63;;;6.10;;
8415;SDS011;4245;42.120;24.732;2022-12-18T09:51:43;9.93;;;6.60;;
8415;SDS011;4245;42.120;24.732;2022-12-18T09:54:14;13.57;;;7.30;;
8415;SDS011;4245;42.120;24.732;2022-12-18T09:56:46;11.87;;;7.13;;
8415;SDS011;4245;42.120;24.732;2022-12-18T09:59:18;11.53;;;7.10;;
8415;SDS011;4245;42.120;24.732;2022-12-18T10:01:49;11.47;;;7.23;;
8415;SDS011;4245;42.120;24.732;2022-12-18T10:04:15;13.60;;;8.33;;
8415;SDS011;4245;42.120;24.732;2022-12-18T10:06:43;11.67;;;6.67;;
8415;SDS011;4245;42.120;24.732;2022-12-18T10:09:18;12.07;;;7.13;;
8415;SDS011;4245;42.120;24.732;2022-12-18T10:11:55;11.33;;;6.87;;
8415;SDS011;4245;42.120;24.732;2022-12-18T10:14:34;10.93;;;6.53;;
8415;SDS011;4245;42.120;24.732;2022-12-18T10:17:14;10.20;;;6.10;;
8415;SDS011;4245;42.120;24.732;2022-12-18T10:19:51;11.17;;;6.03;;
8415;SDS011;4245;42.120;24.732;2022-12-18T10:22:25;9.50;;;6.73;;
8415;SDS011;4245;42.120;24.732;2022-12-18T10:25:03;9.53;;;5.80;;
8415;SDS011;4245;42.120;24.732;2022-12-18T10:27:38;9.73;;;5.93;;
8415;SDS011;4245;42.120;24.732;2022-12-18T10:30:12;12.93;;;6.40;;
8415;SDS011;4245;42.120;24.732;2022-12-18T10:32:39;9.87;;;6.17;;
8415;SDS011;4245;42.120;24.732;2022-12-18T10:35:08;9.73;;;5.87;;
8415;SDS011;4245;42.120;24.732;2022-12-18T10:40:27;9.20;;;6.23;;
8415;SDS011;4245;42.120;24.732;2022-12-18T10:45:41;10.43;;;5.70;;
8415;SDS011;4245;42.120;24.732;2022-12-18T10:48:23;9.03;;;5.27;;
8415;SDS011;4245;42.120;24.732;2022-12-18T10:50:51;8.93;;;6.13;;
8415;SDS011;4245;42.120;24.732;2022-12-18T10:53:19;10.30;;;5.47;;
8415;SDS011;4245;42.120;24.732;2022-12-18T10:55:49;9.07;;;5.43;;
8415;SDS011;4245;42.120;24.732;2022-12-18T10:58:21;11.37;;;7.00;;
8415;SDS011;4245;42.120;24.732;2022-12-18T11:01:05;11.40;;;6.67;;
8415;SDS011;4245;42.120;24.732;2022-12-18T11:03:37;11.27;;;6.80;;
8415;SDS011;4245;42.120;24.732;2022-12-18T11:06:07;11.90;;;6.50;;
8415;SDS011;4245;42.120;24.732;2022-12-18T11:08:36;14.40;;;8.03;;
8415;SDS011;4245;42.120;24.732;2022-12-18T11:11:04;12.97;;;7.60;;
8415;SDS011;4245;42.120;24.732;2022-12-18T11:13:41;14.70;;;8.33;;
8415;SDS011;4245;42.120;24.732;2022-12-18T11:16:23;12.70;;;7.60;;
8415;SDS011;4245;42.120;24.732;2022-12-18T11:18:50;14.20;;;9.13;;
8415;SDS011;4245;42.120;24.732;2022-12-18T11:21:17;13.17;;;8.17;;
8415;SDS011;4245;42.120;24.732;2022-12-18T11:23:46;15.30;;;8.27;;
8415;SDS011;4245;42.120;24.732;2022-12-18T11:26:16;14.27;;;8.50;;
8415;SDS011;4245;42.120;24.732;2022-12-18T11:28:49;14.67;;;8.97;;
8415;SDS011;4245;42.120;24.732;2022-12-18T11:31:23;14.20;;;8.73;;
8415;SDS011;4245;42.120;24.732;2022-12-18T11:33:54;16.87;;;8.43;;
8415;SDS011;4245;42.120;24.732;2022-12-18T11:36:32;12.27;;;8.13;;
8415;SDS011;4245;42.120;24.732;2022-12-18T11:39:04;14.00;;;7.80;;
8415;SDS011;4245;42.120;24.732;2022-12-18T11:41:39;15.63;;;9.13;;
8415;SDS011;4245;42.120;24.732;2022-12-18T11:44:31;15.40;;;9.83;;
8415;SDS011;4245;42.120;24.732;2022-12-18T11:47:09;18.80;;;9.40;;
8415;SDS011;4245;42.120;24.732;2022-12-18T11:49:41;17.43;;;10.90;;
8415;SDS011;4245;42.120;24.732;2022-12-18T11:52:09;14.83;;;8.90;;
8415;SDS011;4245;42.120;24.732;2022-12-18T11:54:44;17.37;;;7.83;;
8415;SDS011;4245;42.120;24.732;2022-12-18T11:57:13;12.87;;;7.97;;
8415;SDS011;4245;42.120;24.732;2022-12-18T11:59:53;13.00;;;7.90;;
8415;SDS011;4245;42.120;24.732;2022-12-18T12:02:38;11.47;;;7.37;;
8415;SDS011;4245;42.120;24.732;2022-12-18T12:05:23;10.77;;;6.87;;
8415;SDS011;4245;42.120;24.732;2022-12-18T12:07:59;9.57;;;6.43;;
8415;SDS011;4245;42.120;24.732;2022-12-18T12:10:38;10.83;;;6.67;;
8415;SDS011;4245;42.120;24.732;2022-12-18T12:13:20;11.13;;;7.50;;
8415;SDS011;4245;42.120;24.732;2022-12-18T12:15:58;18.10;;;7.80;;
8415;SDS011;4245;42.120;24.732;2022-12-18T12:18:42;10.87;;;7.37;;
8415;SDS011;4245;42.120;24.732;2022-12-18T12:21:23;11.87;;;7.13;;
8415;SDS011;4245;42.120;24.732;2022-12-18T12:23:57;17.87;;;7.37;;
8415;SDS011;4245;42.120;24.732;2022-12-18T12:26:30;15.90;;;7.93;;
8415;SDS011;4245;42.120;24.732;2022-12-18T12:29:10;11.03;;;7.20;;
8415;SDS011;4245;42.120;24.732;2022-12-18T12:31:58;12.27;;;7.17;;
8415;SDS011;4245;42.120;24.732;2022-12-18T12:34:39;12.47;;;7.97;;
8415;SDS011;4245;42.120;24.732;2022-12-18T12:37:20;10.60;;;7.20;;
8415;SDS011;4245;42.120;24.732;2022-12-18T12:39:55;11.83;;;7.77;;
8415;SDS011;4245;42.120;24.732;2022-12-18T12:42:26;11.47;;;7.37;;
8415;SDS011;4245;42.120;24.732;2022-12-18T12:45:16;14.20;;;7.67;;
8415;SDS011;4245;42.120;24.732;2022-12-18T12:47:46;13.53;;;7.97;;
8415;SDS011;4245;42.120;24.732;2022-12-18T12:50:18;12.37;;;7.20;;
8415;SDS011;4245;42.120;24.732;2022-12-18T12:52:47;15.10;;;8.60;;
8415;SDS011;4245;42.120;24.732;2022-12-18T12:55:17;12.77;;;7.27;;
8415;SDS011;4245;42.120;24.732;2022-12-18T12:57:48;14.30;;;8.30;;
8415;SDS011;4245;42.120;24.732;2022-12-18T13:00:23;12.30;;;7.23;;
8415;SDS011;4245;42.120;24.732;2022-12-18T13:02:54;11.30;;;7.23;;
8415;SDS011;4245;42.120;24.732;2022-12-18T13:05:30;14.20;;;7.27;;
8415;SDS011;4245;42.120;24.732;2022-12-18T13:08:03;12.53;;;7.37;;
8415;SDS011;4245;42.120;24.732;2022-12-18T13:10:32;15.40;;;8.60;;
8415;SDS011;4245;42.120;24.732;2022-12-18T13:13:01;15.33;;;7.97;;
8415;SDS011;4245;42.120;24.732;2022-12-18T13:18:16;16.70;;;8.10;;
8415;SDS011;4245;42.120;24.732;2022-12-18T13:20:46;14.10;;;8.20;;
8415;SDS011;4245;42.120;24.732;2022-12-18T13:23:27;14.47;;;8.00;;
8415;SDS011;4245;42.120;24.732;2022-12-18T13:25:57;14.63;;;9.20;;
8415;SDS011;4245;42.120;24.732;2022-12-18T13:34:33;19.70;;;9.20;;
8415;SDS011;4245;42.120;24.732;2022-12-18T13:40:19;15.50;;;9.63;;
8415;SDS011;4245;42.120;24.732;2022-12-18T13:43:27;19.33;;;9.47;;
8415;SDS011;4245;42.120;24.732;2022-12-18T13:46:01;16.57;;;9.90;;
8415;SDS011;4245;42.120;24.732;2022-12-18T13:48:31;17.90;;;10.40;;
8415;SDS011;4245;42.120;24.732;2022-12-18T13:51:00;20.17;;;11.77;;
8415;SDS011;4245;42.120;24.732;2022-12-18T13:53:30;18.77;;;9.87;;
8415;SDS011;4245;42.120;24.732;2022-12-18T13:56:01;22.17;;;14.17;;
8415;SDS011;4245;42.120;24.732;2022-12-18T13:58:29;24.67;;;12.57;;
8415;SDS011;4245;42.120;24.732;2022-12-18T14:00:55;16.90;;;10.13;;
8415;SDS011;4245;42.120;24.732;2022-12-18T14:03:25;21.47;;;11.23;;
8415;SDS011;4245;42.120;24.732;2022-12-18T14:05:54;21.53;;;11.63;;
8415;SDS011;4245;42.120;24.732;2022-12-18T14:08:25;21.53;;;11.50;;
8415;SDS011;4245;42.120;24.732;2022-12-18T14:10:55;23.43;;;13.40;;
8415;SDS011;4245;42.120;24.732;2022-12-18T14:13:26;18.47;;;10.43;;
8415;SDS011;4245;42.120;24.732;2022-12-18T14:15:56;17.87;;;10.47;;
8415;SDS011;4245;42.120;24.732;2022-12-18T14:18:26;16.77;;;9.83;;
8415;SDS011;4245;42.120;24.732;2022-12-18T14:21:00;17.30;;;10.50;;
8415;SDS011;4245;42.120;24.732;2022-12-18T14:23:30;17.67;;;10.90;;
8415;SDS011;4245;42.120;24.732;2022-12-18T14:25:59;18.33;;;10.17;;
8415;SDS011;4245;42.120;24.732;2022-12-18T14:28:28;14.83;;;9.43;;
8415;SDS011;4245;42.120;24.732;2022-12-18T14:30:56;17.90;;;9.80;;
8415;SDS011;4245;42.120;24.732;2022-12-18T14:33:23;18.47;;;10.20;;
8415;SDS011;4245;42.120;24.732;2022-12-18T14:35:55;17.17;;;9.90;;
8415;SDS011;4245;42.120;24.732;2022-12-18T14:38:27;16.63;;;9.40;;
8415;SDS011;4245;42.120;24.732;2022-12-18T14:40:58;17.17;;;10.33;;
8415;SDS011;4245;42.120;24.732;2022-12-18T14:43:28;19.43;;;10.57;;
8415;SDS011;4245;42.120;24.732;2022-12-18T14:45:57;19.70;;;11.07;;
8415;SDS011;4245;42.120;24.732;2022-12-18T14:48:32;22.60;;;10.73;;
8415;SDS011;4245;42.120;24.732;2022-12-18T14:51:03;21.73;;;10.90;;
8415;SDS011;4245;42.120;24.732;2022-12-18T14:53:35;20.63;;;10.20;;
8415;SDS011;4245;42.120;24.732;2022-12-18T14:56:11;14.77;;;6.87;;
8415;SDS011;4245;42.120;24.732;2022-12-18T14:58:45;22.40;;;11.50;;
8415;SDS011;4245;42.120;24.732;2022-12-18T15:01:18;18.37;;;10.03;;
8415;SDS011;4245;42.120;24.732;2022-12-18T15:03:49;18.57;;;9.47;;
8415;SDS011;4245;42.120;24.732;2022-12-18T15:06:17;21.10;;;10.53;;
8415;SDS011;4245;42.120;24.732;2022-12-18T15:08:51;21.20;;;11.40;;
8415;SDS011;4245;42.120;24.732;2022-12-18T15:11:28;18.57;;;10.43;;
8415;SDS011;4245;42.120;24.732;2022-12-18T15:14:03;17.80;;;10.53;;
8415;SDS011;4245;42.120;24.732;2022-12-18T15:16:50;24.27;;;12.30;;
8415;SDS011;4245;42.120;24.732;2022-12-18T15:19:18;24.00;;;13.03;;
8415;SDS011;4245;42.120;24.732;2022-12-18T15:21:46;31.17;;;15.90;;